Time;durP1;ratioP1;P1;durP2;ratioP2;P2;SDS_P1;SDS_P2;PMS_P1;PMS_P2;Temp;Humidity;BMP_temperature;BMP_pressure;BME280_temperature;BME280_humidity;BME280_pressure;Samples;Min_cycle;Max_cycle;Signal;HPM_P1;HPM_P2
2021/12/03 00:00:56;;;;;;;9.20;3.40;;;;;;;1.24;64.16;97097.42;103972;1320;22638;-86
2021/12/03 00:03:24;;;;;;;12.70;4.10;;;;;;;1.23;63.96;97099.77;103824;1322;22626;-86
2021/12/03 00:05:57;;;;;;;9.60;3.20;;;;;;;1.19;64.14;97104.30;104804;1318;137232;-86
2021/12/03 00:08:26;;;;;;;11.40;3.40;;;;;;;1.16;64.18;97112.05;103875;1316;25477;-86
2021/12/03 00:11:10;;;;;;;9.60;3.80;;;;;;;1.12;64.68;97116.28;105133;1322;137685;-86
2021/12/03 00:13:42;;;;;;;7.00;3.00;;;;;;;1.10;64.55;97118.88;103770;1323;22620;-86
2021/12/03 00:16:11;;;;;;;7.40;2.50;;;;;;;1.08;64.17;97122.95;103826;1320;137462;-86
2021/12/03 00:18:38;;;;;;;6.40;2.80;;;;;;;1.05;63.90;97118.80;105133;1317;24362;-86
2021/12/03 00:21:08;;;;;;;7.10;2.40;;;;;;;1.01;63.91;97123.42;103683;1317;22570;-86
2021/12/03 00:23:35;;;;;;;7.90;2.10;;;;;;;0.99;63.88;97129.48;103957;1321;137369;-87
2021/12/03 00:26:05;;;;;;;9.20;2.40;;;;;;;0.95;64.53;97137.06;104959;1316;22737;-85
2021/12/03 00:28:38;;;;;;;7.00;2.20;;;;;;;0.93;64.63;97135.45;104441;1320;137289;-87
2021/12/03 00:31:12;;;;;;;7.50;3.10;;;;;;;0.91;64.62;97148.10;104756;1322;22609;-86
2021/12/03 00:33:42;;;;;;;8.70;2.20;;;;;;;0.89;64.54;97149.63;103929;1316;22636;-86
2021/12/03 00:36:12;;;;;;;7.90;2.70;;;;;;;0.86;64.73;97150.89;104903;1320;137236;-86
2021/12/03 00:38:44;;;;;;;6.10;2.50;;;;;;;0.84;64.98;97149.79;104919;1316;22714;-86
2021/12/03 00:41:15;;;;;;;6.40;2.10;;;;;;;0.81;65.01;97149.80;105234;1320;137540;-86
2021/12/03 00:43:46;;;;;;;14.00;2.10;;;;;;;0.85;64.67;97158.08;104714;1315;22689;-86
2021/12/03 00:46:16;;;;;;;7.20;2.60;;;;;;;0.86;64.07;97163.70;103884;1319;137901;-85
2021/12/03 00:48:57;;;;;;;5.50;3.00;;;;;;;0.84;64.64;97168.13;105783;1319;25561;-86
2021/12/03 00:51:27;;;;;;;5.50;2.00;;;;;;;0.85;64.56;97175.55;103727;1323;22568;-87
2021/12/03 00:53:56;;;;;;;6.30;2.80;;;;;;;0.82;64.73;97181.96;105141;1316;137973;-88
2021/12/03 00:56:23;;;;;;;5.30;1.60;;;;;;;0.78;64.73;97183.25;105084;1315;25261;-86
2021/12/03 00:58:52;;;;;;;4.30;1.60;;;;;;;0.78;64.98;97188.00;103854;1316;137675;-85
2021/12/03 01:01:33;;;;;;;4.60;2.10;;;;;;;0.73;65.14;97187.73;104101;1320;22732;-85
2021/12/03 01:04:01;;;;;;;7.50;2.60;;;;;;;0.70;65.05;97182.26;103639;1322;25499;-85
2021/12/03 01:06:29;;;;;;;7.90;1.80;;;;;;;0.67;65.60;97189.23;104158;1320;137636;-86
2021/12/03 01:08:56;;;;;;;8.00;2.70;;;;;;;0.64;65.42;97191.05;103830;1315;25367;-86
2021/12/03 01:11:24;;;;;;;4.40;1.70;;;;;;;0.63;65.75;97198.79;104870;1323;137900;-85
2021/12/03 01:13:53;;;;;;;4.00;1.40;;;;;;;0.61;65.74;97205.86;104047;1318;22589;-86
2021/12/03 01:16:20;;;;;;;5.10;1.90;;;;;;;0.58;65.69;97205.56;103662;1323;138006;-85
2021/12/03 01:18:47;;;;;;;5.90;2.30;;;;;;;0.55;65.89;97208.95;104156;1317;22829;-85
2021/12/03 01:21:14;;;;;;;6.70;2.10;;;;;;;0.51;66.20;97204.36;103819;1318;22623;-86
2021/12/03 01:23:41;;;;;;;6.20;2.20;;;;;;;0.48;65.84;97201.02;104135;1315;137342;-85
2021/12/03 01:26:10;;;;;;;5.30;1.80;;;;;;;0.45;65.84;97201.53;103854;1319;25225;-85
2021/12/03 01:28:37;;;;;;;5.60;2.10;;;;;;;0.45;66.03;97198.77;104843;1321;137298;-86
2021/12/03 01:31:06;;;;;;;7.80;2.00;;;;;;;0.43;66.17;97203.46;105185;1318;22808;-85
2021/12/03 01:33:34;;;;;;;4.00;1.50;;;;;;;0.42;66.20;97201.16;103961;1316;22609;-85
2021/12/03 01:36:01;;;;;;;8.20;2.20;;;;;;;0.44;65.78;97199.31;104932;1316;137669;-85
2021/12/03 01:38:32;;;;;;;5.10;2.30;;;;;;;0.46;66.00;97197.95;103923;1315;24199;-86
2021/12/03 01:41:01;;;;;;;6.30;1.90;;;;;;;0.47;66.10;97196.33;103943;1323;137101;-85
2021/12/03 01:43:28;;;;;;;;;;;;;;;0.48;66.21;97204.57;104270;1317;25243;-85
2021/12/03 01:46:07;;;;;;;5.30;1.90;;;;;;;0.47;66.10;97200.66;103773;1320;22755;-85
2021/12/03 01:48:39;;;;;;;7.20;1.70;;;;;;;0.45;66.49;97201.61;103945;1316;137085;-85
2021/12/03 01:51:08;;;;;;;;;;;;;;;0.43;66.26;97200.25;105299;1317;25219;-86
2021/12/03 01:53:39;;;;;;;5.50;1.70;;;;;;;0.40;66.32;97203.58;104291;1322;123786;-86
2021/12/03 01:56:10;;;;;;;6.60;1.80;;;;;;;0.36;66.69;97206.02;103897;1317;31147;-86
2021/12/03 01:58:53;;;;;;;3.90;1.70;;;;;;;0.33;66.76;97208.19;103978;1317;137508;-86
2021/12/03 02:01:23;;;;;;;5.30;1.50;;;;;;;0.32;66.71;97212.16;104059;1317;24259;-86
2021/12/03 02:03:56;;;;;;;5.70;1.80;;;;;;;0.29;66.98;97221.14;103906;1322;25325;-85
2021/12/03 02:06:25;;;;;;;6.60;1.90;;;;;;;0.26;67.14;97231.07;103656;1316;137799;-85
2021/12/03 02:08:53;;;;;;;4.60;1.90;;;;;;;0.25;67.41;97240.09;105696;1323;22561;-85
2021/12/03 02:11:21;;;;;;;4.90;1.70;;;;;;;0.23;67.59;97240.89;104027;1318;137810;-85
2021/12/03 02:13:49;;;;;;;4.90;1.80;;;;;;;0.21;67.43;97244.67;104684;1322;25237;-86
2021/12/03 02:16:18;;;;;;;3.70;1.80;;;;;;;0.23;66.73;97248.02;104024;1322;138042;-85
2021/12/03 02:18:46;;;;;;;8.00;1.90;;;;;;;0.27;66.96;97253.03;104723;1315;22627;-86
2021/12/03 02:21:14;;;;;;;10.30;2.40;;;;;;;0.29;66.95;97260.15;104763;1317;22723;-85
2021/12/03 02:23:43;;;;;;;5.90;2.10;;;;;;;0.33;67.20;97259.11;104903;1315;137337;-85
2021/12/03 02:26:12;;;;;;;8.90;2.30;;;;;;;0.35;67.24;97260.05;103448;1316;25409;-85
2021/12/03 02:28:44;;;;;;;9.40;3.10;;;;;;;0.36;67.12;97268.92;104112;1315;137981;-85
2021/12/03 02:31:20;;;;;;;5.40;2.20;;;;;;;0.36;67.76;97276.70;105348;1322;22408;-85
2021/12/03 02:33:47;;;;;;;7.30;2.90;;;;;;;0.37;67.63;97280.73;103905;1322;24300;-85
2021/12/03 02:36:16;;;;;;;8.60;3.60;;;;;;;0.37;67.62;97288.15;104235;1316;137571;-85
2021/12/03 02:38:43;;;;;;;6.30;2.40;;;;;;;0.36;67.19;97286.33;103980;1316;22731;-85
2021/12/03 02:41:11;;;;;;;10.40;2.90;;;;;;;0.34;67.29;97287.74;104189;1316;137153;-85
2021/12/03 02:43:38;;;;;;;6.60;2.50;;;;;;;0.35;67.31;97293.15;105048;1315;24435;-85
2021/12/03 02:46:05;;;;;;;10.90;3.30;;;;;;;0.34;67.31;97301.10;104360;1316;22302;-85
2021/12/03 02:48:35;;;;;;;9.40;3.20;;;;;;;0.33;67.38;97303.36;104286;1316;137110;-85
2021/12/03 02:51:03;;;;;;;;;;;;;;;0.31;67.01;97307.85;103981;1315;25346;-85
2021/12/03 02:53:30;;;;;;;6.30;2.30;;;;;;;0.29;67.12;97313.71;103623;1317;124673;-85
2021/12/03 02:55:57;;;;;;;5.50;2.10;;;;;;;0.27;67.04;97312.73;104153;1317;22404;-85
2021/12/03 02:58:24;;;;;;;5.20;2.80;;;;;;;0.25;67.13;97311.48;104757;1315;138079;-85
2021/12/03 03:01:08;;;;;;;9.90;2.30;;;;;;;0.23;67.26;97316.14;104866;1322;22611;-86
2021/12/03 03:03:36;;;;;;;7.80;2.50;;;;;;;0.21;67.42;97312.35;103958;1320;26637;-86
2021/12/03 03:06:06;;;;;;;5.70;2.70;;;;;;;0.20;67.35;97305.14;103755;1316;137580;-85
2021/12/03 03:08:32;;;;;;;;;;;;;;;0.22;67.33;97305.60;104989;1319;22639;-85
2021/12/03 03:11:02;;;;;;;12.90;3.20;;;;;;;0.23;67.34;97310.33;105581;1315;123861;-86
2021/12/03 03:13:29;;;;;;;5.60;2.30;;;;;;;0.23;67.44;97314.75;104122;1321;25554;-85
2021/12/03 03:16:10;;;;;;;9.60;3.00;;;;;;;0.22;67.47;97327.70;104510;1315;25367;-86
2021/12/03 03:18:37;;;;;;;8.70;2.90;;;;;;;0.20;67.31;97336.78;103913;1317;138107;-86
2021/12/03 03:21:05;;;;;;;5.00;2.20;;;;;;;0.16;67.30;97336.56;103872;1316;22715;-85
2021/12/03 03:23:34;;;;;;;6.70;2.40;;;;;;;0.11;67.42;97333.85;104274;1320;137577;-85
2021/12/03 03:26:02;;;;;;;4.60;2.20;;;;;;;0.05;67.76;97333.73;104897;1320;22624;-86
2021/12/03 03:28:30;;;;;;;6.70;2.20;;;;;;;-0.01;67.85;97337.08;104080;1315;137488;-85
2021/12/03 03:30:59;;;;;;;8.10;2.10;;;;;;;-0.08;68.45;97340.88;103686;1318;25255;-86
2021/12/03 03:33:28;;;;;;;7.00;2.20;;;;;;;-0.13;68.42;97345.25;104556;1323;22551;-87
2021/12/03 03:36:09;;;;;;;6.90;2.30;;;;;;;-0.18;68.70;97350.38;104130;1315;138263;-87
2021/12/03 03:38:36;;;;;;;7.80;3.00;;;;;;;-0.19;68.49;97359.92;105205;1320;22632;-87
2021/12/03 03:41:17;;;;;;;6.00;2.50;;;;;;;-0.18;68.79;97367.55;103447;1320;137655;-86
2021/12/03 03:43:44;;;;;;;7.20;2.60;;;;;;;-0.18;68.70;97368.74;103940;1320;22568;-87
2021/12/03 03:46:11;;;;;;;8.50;2.60;;;;;;;-0.18;68.55;97372.94;103494;1319;25436;-86
2021/12/03 03:48:38;;;;;;;5.40;2.50;;;;;;;-0.16;68.83;97371.17;103605;1316;137337;-85
2021/12/03 03:51:05;;;;;;;6.50;2.70;;;;;;;-0.17;68.53;97369.81;103910;1317;25238;-86
2021/12/03 03:53:32;;;;;;;6.20;2.30;;;;;;;-0.18;68.78;97376.02;103749;1322;137651;-85
2021/12/03 03:55:59;;;;;;;8.80;2.70;;;;;;;-0.20;68.89;97380.59;103717;1320;24309;-86
2021/12/03 03:58:26;;;;;;;8.40;3.10;;;;;;;-0.23;69.32;97382.35;104808;1315;137774;-85
2021/12/03 04:00:53;;;;;;;7.70;2.30;;;;;;;-0.25;69.39;97383.88;105135;1315;22585;-85
2021/12/03 04:03:20;;;;;;;6.10;2.10;;;;;;;-0.27;69.45;97393.22;105365;1322;22292;-87
2021/12/03 04:05:47;;;;;;;7.50;2.70;;;;;;;-0.28;69.99;97395.77;104019;1319;138148;-87
2021/12/03 04:08:14;;;;;;;5.40;2.50;;;;;;;-0.26;69.73;97394.20;103736;1316;25410;-86
2021/12/03 04:10:42;;;;;;;9.40;2.70;;;;;;;-0.22;70.44;97398.53;103688;1317;139498;-86
2021/12/03 04:13:09;;;;;;;6.80;2.50;;;;;;;-0.22;70.23;97407.05;103755;1321;23288;-86
2021/12/03 04:15:37;;;;;;;6.20;2.60;;;;;;;-0.22;70.35;97415.66;104006;1324;25244;-85
2021/12/03 04:18:04;;;;;;;4.40;2.00;;;;;;;-0.23;69.61;97421.09;103964;1323;137235;-85
2021/12/03 04:20:45;;;;;;;5.50;2.40;;;;;;;-0.26;69.81;97428.45;105389;1317;22396;-85
2021/12/03 04:23:17;;;;;;;6.80;2.40;;;;;;;-0.30;70.16;97441.16;104493;1321;137334;-86
2021/12/03 04:25:45;;;;;;;7.30;2.40;;;;;;;-0.36;70.11;97443.19;105428;1316;22679;-86
2021/12/03 04:28:12;;;;;;;9.10;3.30;;;;;;;-0.36;70.79;97443.84;104764;1321;22263;-87
2021/12/03 04:30:40;;;;;;;4.10;1.90;;;;;;;-0.34;70.93;97445.75;104222;1317;137494;-85
2021/12/03 04:33:22;;;;;;;3.80;2.70;;;;;;;-0.35;71.21;97452.29;103638;1323;22586;-85
2021/12/03 04:35:49;;;;;;;6.50;2.50;;;;;;;-0.39;71.67;97460.99;103859;1315;137276;-87
2021/12/03 04:38:16;;;;;;;4.60;2.00;;;;;;;-0.42;71.82;97465.06;103638;1316;25249;-85
2021/12/03 04:40:43;;;;;;;3.90;2.50;;;;;;;-0.43;71.61;97465.13;105558;1322;138080;-85
2021/12/03 04:43:11;;;;;;;9.40;2.10;;;;;;;-0.47;71.65;97468.04;103953;1316;24375;-86
2021/12/03 04:45:38;;;;;;;5.50;1.90;;;;;;;-0.49;72.02;97468.56;104192;1322;24249;-85
2021/12/03 04:48:06;;;;;;;7.30;1.80;;;;;;;-0.51;72.02;97469.37;105321;1319;159601;-86
2021/12/03 04:50:48;;;;;;;7.00;3.10;;;;;;;-0.53;71.55;97466.16;104779;1316;22295;-85
2021/12/03 04:53:29;;;;;;;7.70;1.90;;;;;;;-0.54;71.81;97476.48;103929;1320;137916;-84
2021/12/03 04:55:56;;;;;;;3.60;1.10;;;;;;;-0.56;71.15;97479.02;104786;1316;22658;-86
2021/12/03 04:58:23;;;;;;;5.30;1.40;;;;;;;-0.60;71.50;97476.83;103771;1316;137567;-85
2021/12/03 05:00:56;;;;;;;2.60;0.90;;;;;;;-0.60;71.47;97475.35;104601;1316;22578;-84
2021/12/03 05:03:25;;;;;;;2.90;1.50;;;;;;;-0.61;71.17;97476.94;104043;1316;24247;-86
2021/12/03 05:05:55;;;;;;;6.30;1.70;;;;;;;-0.59;70.99;97479.45;103942;1316;137418;-85
2021/12/03 05:08:28;;;;;;;4.10;1.40;;;;;;;-0.57;71.11;97480.13;103490;1322;22627;-85
2021/12/03 05:10:57;;;;;;;4.10;2.00;;;;;;;-0.54;71.08;97479.94;105448;1316;138257;-86
2021/12/03 05:13:27;;;;;;;5.60;2.20;;;;;;;-0.53;70.93;97480.48;103718;1321;23451;-86
2021/12/03 05:15:54;;;;;;;7.00;2.50;;;;;;;-0.51;70.92;97483.11;104147;1323;23060;-85
2021/12/03 05:18:24;;;;;;;3.60;1.80;;;;;;;-0.51;70.76;97492.37;105189;1317;137389;-85
2021/12/03 05:20:53;;;;;;;5.60;2.40;;;;;;;-0.52;70.47;97496.84;103986;1316;22659;-87
2021/12/03 05:23:23;;;;;;;5.40;2.70;;;;;;;-0.51;70.58;97496.41;104440;1321;137387;-86
2021/12/03 05:25:51;;;;;;;7.50;2.80;;;;;;;-0.50;71.08;97497.85;104643;1320;22589;-86
2021/12/03 05:28:32;;;;;;;8.40;3.50;;;;;;;-0.48;71.16;97499.66;103534;1318;137723;-86
2021/12/03 05:30:59;;;;;;;5.10;2.00;;;;;;;-0.47;71.35;97504.62;104138;1317;22561;-86
2021/12/03 05:33:26;;;;;;;9.40;2.30;;;;;;;-0.43;71.28;97506.29;104956;1321;22750;-86
2021/12/03 05:35:53;;;;;;;4.40;1.80;;;;;;;-0.41;71.26;97507.05;103819;1317;137458;-85
2021/12/03 05:38:20;;;;;;;4.30;1.80;;;;;;;-0.39;70.90;97510.70;104720;1321;22330;-86
2021/12/03 05:40:47;;;;;;;4.80;1.70;;;;;;;-0.39;71.06;97508.60;104075;1316;138476;-86
2021/12/03 05:43:14;;;;;;;7.20;2.20;;;;;;;-0.38;70.98;97514.03;104998;1316;23230;-86
2021/12/03 05:45:41;;;;;;;6.10;2.80;;;;;;;-0.36;70.98;97520.42;104716;1319;24321;-86
2021/12/03 05:48:08;;;;;;;4.10;1.50;;;;;;;-0.37;70.88;97526.72;104343;1316;137784;-84
2021/12/03 05:50:36;;;;;;;6.90;1.80;;;;;;;-0.38;70.96;97538.08;104824;1317;22352;-86
2021/12/03 05:53:03;;;;;;;4.40;1.90;;;;;;;-0.40;71.11;97545.55;104126;1323;137424;-86
2021/12/03 05:55:30;;;;;;;3.70;2.40;;;;;;;-0.41;71.03;97549.64;103750;1321;22600;-84
2021/12/03 05:57:57;;;;;;;5.80;2.30;;;;;;;-0.42;71.28;97552.70;103633;1316;22603;-86
2021/12/03 06:00:42;;;;;;;7.40;3.10;;;;;;;-0.41;71.25;97552.90;103643;1316;138128;-86
2021/12/03 06:03:23;;;;;;;7.10;2.90;;;;;;;-0.39;71.35;97560.34;104004;1322;22597;-86
2021/12/03 06:05:50;;;;;;;6.70;2.80;;;;;;;-0.36;71.42;97564.42;103630;1320;137568;-85
2021/12/03 06:08:17;;;;;;;8.50;2.90;;;;;;;-0.36;71.70;97571.66;104213;1321;24296;-85
2021/12/03 06:10:44;;;;;;;5.80;2.50;;;;;;;-0.37;71.76;97565.25;105496;1322;137834;-86
2021/12/03 06:13:11;;;;;;;5.90;2.70;;;;;;;-0.39;71.69;97561.39;104201;1324;22661;-86
2021/12/03 06:15:38;;;;;;;12.10;3.20;;;;;;;-0.41;72.14;97563.08;104270;1317;22617;-86
2021/12/03 06:18:05;;;;;;;3.80;2.20;;;;;;;-0.43;72.02;97568.95;103652;1317;137636;-85
2021/12/03 06:20:46;;;;;;;14.10;3.60;;;;;;;-0.45;72.08;97574.00;103837;1319;22679;-86
2021/12/03 06:23:13;;;;;;;8.60;4.00;;;;;;;-0.48;72.14;97579.87;103655;1321;137802;-86
2021/12/03 06:25:54;;;;;;;9.20;4.40;;;;;;;-0.49;72.01;97586.94;105349;1322;22598;-86
2021/12/03 06:28:22;;;;;;;9.90;4.10;;;;;;;-0.48;72.35;97589.63;104078;1315;137856;-86
2021/12/03 06:30:49;;;;;;;12.30;5.30;;;;;;;-0.46;72.55;97588.71;104002;1321;22632;-86
2021/12/03 06:33:30;;;;;;;9.20;4.00;;;;;;;-0.45;72.53;97593.95;103702;1321;22647;-86
2021/12/03 06:35:57;;;;;;;11.00;4.60;;;;;;;-0.47;72.69;97597.16;103644;1322;137405;-86
2021/12/03 06:38:24;;;;;;;8.00;3.50;;;;;;;-0.49;72.60;97604.71;104176;1321;22624;-86
2021/12/03 06:40:53;;;;;;;12.50;4.80;;;;;;;-0.53;72.70;97612.71;103726;1319;137608;-86
2021/12/03 06:43:34;;;;;;;11.40;4.40;;;;;;;-0.58;72.77;97617.80;103909;1320;25320;-86
2021/12/03 06:46:02;;;;;;;13.40;5.00;;;;;;;-0.64;72.78;97617.11;103651;1315;22593;-86
2021/12/03 06:48:29;;;;;;;11.80;4.80;;;;;;;-0.66;73.33;97622.73;103960;1320;138287;-85
2021/12/03 06:50:56;;;;;;;13.10;4.80;;;;;;;-0.67;73.38;97625.55;103881;1315;22625;-85
2021/12/03 06:53:33;;;;;;;12.80;6.50;;;;;;;-0.68;73.44;97627.12;104011;1316;138986;-86
2021/12/03 06:56:09;;;;;;;11.50;5.80;;;;;;;-0.69;73.58;97638.09;103761;1317;22726;-87
2021/12/03 06:58:36;;;;;;;9.40;5.50;;;;;;;-0.69;73.78;97646.85;103641;1315;138163;-85
2021/12/03 07:01:17;;;;;;;10.00;5.20;;;;;;;-0.69;73.94;97652.57;103594;1316;22627;-85
2021/12/03 07:03:57;;;;;;;18.70;5.40;;;;;;;-0.69;74.05;97657.02;103897;1316;25442;-86
2021/12/03 07:06:24;;;;;;;9.80;5.80;;;;;;;-0.68;74.07;97660.85;103910;1315;137499;-85
2021/12/03 07:08:51;;;;;;;11.00;5.70;;;;;;;-0.67;74.33;97665.34;103390;1315;25319;-85
2021/12/03 07:11:18;;;;;;;12.10;5.70;;;;;;;-0.64;74.22;97672.02;103720;1322;138258;-85
2021/12/03 07:13:45;;;;;;;16.20;6.40;;;;;;;-0.60;74.00;97672.75;103956;1321;23976;-86
2021/12/03 07:16:12;;;;;;;11.80;5.80;;;;;;;-0.57;74.27;97670.23;103773;1320;25322;-78
2021/12/03 07:18:39;;;;;;;17.50;7.20;;;;;;;-0.45;76.40;97671.27;103516;1318;137653;-86
2021/12/03 07:21:06;;;;;;;16.20;7.20;;;;;;;-0.25;75.26;97673.42;104193;1320;25310;-86
2021/12/03 07:23:33;;;;;;;12.90;5.70;;;;;;;-0.18;74.37;97678.78;104042;1320;137539;-85
2021/12/03 07:26:02;;;;;;;14.20;6.30;;;;;;;-0.18;74.02;97683.20;104497;1316;25332;-86
2021/12/03 07:28:32;;;;;;;14.90;7.10;;;;;;;-0.20;73.71;97694.66;104249;1316;137601;-87
2021/12/03 07:31:00;;;;;;;19.50;7.10;;;;;;;-0.21;73.52;97698.20;104025;1320;22761;-86
2021/12/03 07:33:31;;;;;;;18.10;6.70;;;;;;;-0.23;73.31;97701.77;103687;1316;26546;-86
2021/12/03 07:36:12;;;;;;;15.90;6.20;;;;;;;-0.26;73.35;97705.20;103596;1317;138521;-86
2021/12/03 07:38:39;;;;;;;11.00;5.10;;;;;;;-0.28;73.36;97707.48;103433;1321;24253;-87
2021/12/03 07:41:07;;;;;;;10.40;5.90;;;;;;;-0.30;73.45;97710.75;103925;1321;137650;-86
2021/12/03 07:43:48;;;;;;;12.90;6.20;;;;;;;-0.32;73.57;97716.97;103771;1318;24055;-86
2021/12/03 07:46:15;;;;;;;12.50;5.70;;;;;;;-0.34;73.64;97718.59;104009;1316;22577;-87
2021/12/03 07:48:46;;;;;;;13.90;5.20;;;;;;;-0.35;73.84;97720.12;103657;1316;137369;-88
2021/12/03 07:51:15;;;;;;;15.30;6.70;;;;;;;-0.37;73.99;97726.96;103844;1322;22672;-85
2021/12/03 07:53:43;;;;;;;14.30;6.60;;;;;;;-0.36;74.36;97736.56;103508;1321;138430;-88
2021/12/03 07:56:11;;;;;;;12.30;5.60;;;;;;;-0.34;74.40;97734.94;103975;1317;25432;-86
2021/12/03 07:58:38;;;;;;;13.00;5.90;;;;;;;-0.29;74.23;97736.63;103551;1316;137988;-88
2021/12/03 08:01:05;;;;;;;10.50;5.00;;;;;;;-0.24;74.59;97741.23;103444;1321;22571;-86
2021/12/03 08:03:32;;;;;;;13.10;6.40;;;;;;;-0.20;74.42;97742.45;103709;1316;29626;-87
2021/12/03 08:06:05;;;;;;;10.50;5.00;;;;;;;-0.16;74.36;97736.52;103510;1322;137625;-88
2021/12/03 08:08:32;;;;;;;14.70;6.00;;;;;;;-0.12;74.70;97740.62;103885;1323;25354;-88
2021/12/03 08:11:00;;;;;;;12.40;6.50;;;;;;;-0.09;74.54;97740.81;103924;1322;138180;-86
2021/12/03 08:13:27;;;;;;;14.90;7.50;;;;;;;-0.07;74.73;97742.92;103714;1317;22602;-89
2021/12/03 08:15:54;;;;;;;16.00;7.30;;;;;;;-0.00;74.78;97747.33;103893;1317;24313;-87
2021/12/03 08:18:22;;;;;;;15.70;7.90;;;;;;;0.09;74.68;97750.45;103740;1322;138385;-88
2021/12/03 08:20:49;;;;;;;16.40;7.20;;;;;;;0.17;74.51;97754.71;104153;1322;22608;-87
2021/12/03 08:23:16;;;;;;;11.30;5.30;;;;;;;0.25;74.29;97754.14;103929;1316;137501;-87
2021/12/03 08:25:43;;;;;;;18.20;10.50;;;;;;;0.29;74.29;97758.08;103926;1315;23316;-87
2021/12/03 08:28:10;;;;;;;19.50;8.20;;;;;;;0.32;73.74;97759.16;103588;1322;22627;-87
2021/12/03 08:30:39;;;;;;;17.10;7.80;;;;;;;0.33;73.63;97764.32;103760;1322;137319;-86
2021/12/03 08:33:06;;;;;;;15.80;7.20;;;;;;;0.33;73.37;97767.30;104132;1323;25327;-88
2021/12/03 08:35:34;;;;;;;13.00;6.50;;;;;;;0.35;73.70;97769.91;103625;1323;137896;-87
2021/12/03 08:38:01;;;;;;;13.40;6.70;;;;;;;0.36;73.63;97771.85;103763;1322;24403;-86
2021/12/03 08:40:42;;;;;;;11.10;6.30;;;;;;;0.38;73.38;97774.07;103945;1317;138307;-85
2021/12/03 08:43:09;;;;;;;10.00;5.40;;;;;;;0.38;72.57;97772.42;103653;1322;23318;-86
2021/12/03 08:45:38;;;;;;;11.40;5.10;;;;;;;0.37;71.72;97778.23;104073;1316;22663;-86
2021/12/03 08:48:06;;;;;;;6.90;3.60;;;;;;;0.36;71.15;97777.48;104169;1321;137454;-86
2021/12/03 08:50:36;;;;;;;7.70;3.40;;;;;;;0.32;70.22;97782.69;103431;1321;22620;-87
2021/12/03 08:53:12;;;;;;;6.70;3.10;;;;;;;0.28;69.97;97795.80;104322;1321;137700;-86
2021/12/03 08:55:54;;;;;;;4.10;2.50;;;;;;;0.26;70.11;97803.66;103606;1317;23545;-85
2021/12/03 08:58:21;;;;;;;6.50;2.90;;;;;;;0.19;70.23;97809.70;103433;1321;137353;-83
2021/12/03 09:00:48;;;;;;;17.00;4.60;;;;;;;0.08;70.63;97810.31;103609;1321;25236;-87
2021/12/03 09:03:29;;;;;;;6.30;3.60;;;;;;;0.06;70.65;97817.80;103556;1322;24419;-86
2021/12/03 09:05:56;;;;;;;8.00;3.10;;;;;;;0.06;70.50;97821.05;103754;1320;137933;-85
2021/12/03 09:08:23;;;;;;;14.30;4.30;;;;;;;0.08;70.68;97826.38;103876;1322;23243;-84
2021/12/03 09:10:50;;;;;;;10.60;5.00;;;;;;;0.11;71.21;97829.25;104250;1322;138011;-87
2021/12/03 09:13:17;;;;;;;9.20;4.30;;;;;;;0.16;71.72;97830.92;104279;1321;22592;-87
2021/12/03 09:15:51;;;;;;;10.30;5.10;;;;;;;0.22;72.05;97837.91;103605;1316;25239;-87
2021/12/03 09:18:27;;;;;;;9.80;4.70;;;;;;;0.25;72.29;97843.94;103416;1317;137495;-84
2021/12/03 09:21:33;;;;;;;8.80;4.60;;;;;;;0.27;72.21;97844.37;103913;1321;23477;-86
2021/12/03 09:24:14;;;;;;;7.80;5.00;;;;;;;0.26;71.69;97845.39;104380;1316;137934;-85
2021/12/03 09:26:42;;;;;;;9.20;5.00;;;;;;;0.27;72.06;97850.92;104143;1321;24380;-84
2021/12/03 09:29:14;;;;;;;9.30;5.10;;;;;;;0.28;71.43;97847.46;104704;1316;137323;-85
2021/12/03 09:31:43;;;;;;;9.80;5.00;;;;;;;0.27;71.74;97854.02;104634;1317;25322;-85
2021/12/03 09:34:15;;;;;;;7.90;4.10;;;;;;;0.29;71.68;97855.05;104311;1315;24263;-85
2021/12/03 09:36:42;;;;;;;9.40;3.80;;;;;;;0.28;71.37;97859.57;103752;1320;137333;-85
2021/12/03 09:39:16;;;;;;;9.20;3.90;;;;;;;0.26;71.17;97861.22;103827;1318;22616;-85
2021/12/03 09:41:43;;;;;;;5.70;2.30;;;;;;;0.24;70.62;97866.70;103203;1323;137266;-85
2021/12/03 09:44:11;;;;;;;4.70;2.20;;;;;;;0.18;69.73;97865.27;104007;1316;22642;-85
2021/12/03 09:46:52;;;;;;;3.90;2.00;;;;;;;0.12;69.82;97867.98;103661;1321;137839;-85
2021/12/03 09:49:35;;;;;;;5.30;1.70;;;;;;;0.06;69.49;97867.73;103579;1316;22587;-85
2021/12/03 09:55:01;;;;;;;5.50;2.20;;;;;;;-0.03;69.61;97871.30;103481;1316;137217;-85
2021/12/03 09:57:35;;;;;;;5.60;2.40;;;;;;;-0.09;69.82;97872.90;103686;1316;22669;-86
2021/12/03 10:00:16;;;;;;;7.40;2.80;;;;;;;-0.08;70.15;97871.34;103821;1317;137504;-86
2021/12/03 10:18:47;;;;;;;10.10;3.70;;;;;;;0.27;68.37;97859.41;104041;1316;137125;-86
2021/12/03 10:27:45;;;;;;;13.10;5.80;;;;;;;0.43;67.54;97859.11;103534;1321;25530;-86
2021/12/03 10:44:27;;;;;;;9.90;3.50;;;;;;;1.00;65.65;97838.89;103940;1316;23355;-85
2021/12/03 11:06:46;;;;;;;12.70;4.50;;;;;;;1.10;65.03;97828.16;103702;1316;137536;-85
2021/12/03 11:15:12;;;;;;;6.90;3.90;;;;;;;1.16;64.37;97830.29;104161;1321;22619;-86
2021/12/03 11:43:27;;;;;;;6.30;3.70;;;;;;;1.43;60.81;97847.98;103838;1316;137174;-85
2021/12/03 11:46:15;;;;;;;7.30;4.60;;;;;;;1.47;60.52;97848.59;103314;1320;24320;-85
2021/12/03 12:45:01;;;;;;;7.80;4.50;;;;;;;1.99;54.37;97838.54;104150;1317;22247;-85
2021/12/03 13:10:43;;;;;;;9.30;3.30;;;;;;;2.01;55.58;97867.38;103686;1315;31728;-85
2021/12/03 13:13:30;;;;;;;9.00;3.60;;;;;;;1.97;55.92;97863.58;103852;1318;137364;-85
2021/12/03 13:34:44;;;;;;;7.70;2.70;;;;;;;1.69;56.43;97888.76;103983;1322;22594;-84
2021/12/03 14:09:43;;;;;;;11.10;4.90;;;;;;;1.08;58.77;97903.55;103477;1324;25375;-84
2021/12/03 14:57:09;;;;;;;14.80;7.00;;;;;;;-0.09;62.50;97953.20;103780;1316;137674;-83
2021/12/03 14:59:40;;;;;;;18.10;6.60;;;;;;;-0.15;62.54;97952.90;104152;1315;25448;-84
2021/12/03 15:02:26;;;;;;;19.90;7.50;;;;;;;-0.19;62.61;97960.55;103641;1315;138507;-84
2021/12/03 15:07:37;;;;;;;26.40;9.40;;;;;;;-0.28;63.38;97962.22;103462;1318;137602;-87
2021/12/03 15:10:10;;;;;;;23.80;9.30;;;;;;;-0.33;63.45;97964.27;103506;1318;25266;-85
2021/12/03 15:12:59;;;;;;;23.70;9.10;;;;;;;-0.39;63.66;97964.86;103793;1316;137696;-89
2021/12/03 15:21:25;;;;;;;19.90;7.40;;;;;;;-0.53;64.11;97977.65;103544;1316;137803;-89
2021/12/03 15:26:37;;;;;;;21.80;8.50;;;;;;;-0.62;64.45;97987.36;103881;1315;137895;-89
2021/12/03 15:31:56;;;;;;;21.90;8.80;;;;;;;-0.71;64.52;97993.23;103560;1321;137518;-87
2021/12/03 15:37:25;;;;;;;22.20;7.40;;;;;;;-0.80;64.92;97993.04;103485;1315;137668;-87
2021/12/03 15:40:43;;;;;;;22.10;8.30;;;;;;;-0.84;65.26;97992.12;103719;1322;23348;-87
2021/12/03 15:54:24;;;;;;;31.20;12.30;;;;;;;-0.86;65.55;98000.17;103796;1318;22791;-85
2021/12/03 16:04:41;;;;;;;32.00;12.20;;;;;;;-0.98;66.01;98006.36;104055;1316;22677;-86
2021/12/03 16:07:18;;;;;;;41.50;13.50;;;;;;;-1.01;66.14;98005.47;103623;1320;137864;-85
2021/12/03 16:12:50;;;;;;;24.40;11.10;;;;;;;-1.10;66.49;98005.84;103563;1318;22731;-84
2021/12/03 16:45:56;;;;;;;35.90;15.60;;;;;;;-1.28;66.52;98026.91;103764;1317;138188;-82
2021/12/03 16:54:11;;;;;;;41.40;17.10;;;;;;;-1.37;66.54;98041.60;104282;1312;22653;-82
2021/12/03 16:56:44;;;;;;;;;;;;;;;-1.40;66.78;98045.89;103514;1316;138753;-83
2021/12/03 16:59:13;;;;;;;39.80;16.10;;;;;;;-1.44;66.68;98048.63;104269;1316;22593;-83
2021/12/03 17:01:56;;;;;;;51.60;17.10;;;;;;;-1.47;66.65;98056.83;103552;1315;137857;-83
2021/12/03 17:04:37;;;;;;;47.50;16.70;;;;;;;-1.50;66.82;98056.56;104037;1315;22583;-82
2021/12/03 17:22:43;;;;;;;39.30;16.80;;;;;;;-1.60;67.39;98061.80;103905;1322;22598;-83
2021/12/03 17:44:36;;;;;;;65.50;22.60;;;;;;;-1.68;67.67;98063.30;103612;1322;138015;-83
2021/12/03 17:50:07;;;;;;;45.50;18.00;;;;;;;-1.75;67.57;98068.59;103888;1318;138061;-83
2021/12/03 18:00:30;;;;;;;38.90;15.60;;;;;;;-1.84;67.12;98073.23;103680;1319;22740;-84
2021/12/03 18:03:10;;;;;;;34.40;14.10;;;;;;;-1.86;67.65;98078.23;103506;1317;138495;-84
2021/12/03 18:06:02;;;;;;;;;;;;;;;-1.89;67.30;98080.38;103795;1316;22557;-84
2021/12/03 18:53:01;;;;;;;23.00;10.20;;;;;;;-2.08;68.22;98096.75;103721;1316;22546;-86